sensor_id;sensor_type;location;lat;lon;timestamp;P1;durP1;ratioP1;P2;durP2;ratioP2
17347;SDS011;8791;50.876;4.342;2022-09-20T00:02:12;6.57;;;1.90;;
17347;SDS011;8791;50.876;4.342;2022-09-20T00:04:39;7.03;;;1.87;;
17347;SDS011;8791;50.876;4.342;2022-09-20T00:07:07;5.93;;;1.60;;
17347;SDS011;8791;50.876;4.342;2022-09-20T00:09:34;5.30;;;1.80;;
17347;SDS011;8791;50.876;4.342;2022-09-20T00:12:01;10.03;;;2.30;;
17347;SDS011;8791;50.876;4.342;2022-09-20T00:14:28;3.07;;;1.77;;
17347;SDS011;8791;50.876;4.342;2022-09-20T00:16:55;3.60;;;1.57;;
17347;SDS011;8791;50.876;4.342;2022-09-20T00:19:22;6.57;;;2.10;;
17347;SDS011;8791;50.876;4.342;2022-09-20T00:21:49;6.93;;;1.87;;
17347;SDS011;8791;50.876;4.342;2022-09-20T00:24:17;6.60;;;2.00;;
17347;SDS011;8791;50.876;4.342;2022-09-20T00:26:44;9.30;;;2.10;;
17347;SDS011;8791;50.876;4.342;2022-09-20T00:29:11;5.83;;;2.30;;
17347;SDS011;8791;50.876;4.342;2022-09-20T00:31:38;3.73;;;1.77;;
17347;SDS011;8791;50.876;4.342;2022-09-20T00:34:07;4.10;;;2.13;;
17347;SDS011;8791;50.876;4.342;2022-09-20T00:36:53;3.67;;;2.20;;
17347;SDS011;8791;50.876;4.342;2022-09-20T00:39:21;3.40;;;2.07;;
17347;SDS011;8791;50.876;4.342;2022-09-20T00:41:48;5.10;;;1.93;;
17347;SDS011;8791;50.876;4.342;2022-09-20T00:47:09;6.00;;;2.07;;
17347;SDS011;8791;50.876;4.342;2022-09-20T00:49:40;5.93;;;2.17;;
17347;SDS011;8791;50.876;4.342;2022-09-20T00:52:08;4.20;;;2.27;;
17347;SDS011;8791;50.876;4.342;2022-09-20T00:54:36;8.57;;;2.43;;
17347;SDS011;8791;50.876;4.342;2022-09-20T00:57:03;4.63;;;2.10;;
17347;SDS011;8791;50.876;4.342;2022-09-20T00:59:31;8.80;;;2.20;;
17347;SDS011;8791;50.876;4.342;2022-09-20T01:02:00;7.70;;;2.57;;
17347;SDS011;8791;50.876;4.342;2022-09-20T01:04:30;6.37;;;2.00;;
17347;SDS011;8791;50.876;4.342;2022-09-20T01:07:00;8.17;;;2.20;;
17347;SDS011;8791;50.876;4.342;2022-09-20T01:09:29;4.87;;;2.10;;
17347;SDS011;8791;50.876;4.342;2022-09-20T01:11:57;6.83;;;2.00;;
17347;SDS011;8791;50.876;4.342;2022-09-20T01:14:29;8.93;;;2.00;;
17347;SDS011;8791;50.876;4.342;2022-09-20T01:16:56;4.90;;;1.83;;
17347;SDS011;8791;50.876;4.342;2022-09-20T01:19:29;5.87;;;1.90;;
17347;SDS011;8791;50.876;4.342;2022-09-20T01:22:06;12.60;;;2.30;;
17347;SDS011;8791;50.876;4.342;2022-09-20T01:24:37;3.87;;;1.90;;
17347;SDS011;8791;50.876;4.342;2022-09-20T01:27:14;4.87;;;1.67;;
17347;SDS011;8791;50.876;4.342;2022-09-20T01:29:54;7.77;;;2.37;;
17347;SDS011;8791;50.876;4.342;2022-09-20T01:32:29;10.70;;;2.20;;
17347;SDS011;8791;50.876;4.342;2022-09-20T01:35:05;5.83;;;1.90;;
17347;SDS011;8791;50.876;4.342;2022-09-20T01:37:36;7.43;;;2.03;;
17347;SDS011;8791;50.876;4.342;2022-09-20T01:40:17;3.23;;;1.80;;
17347;SDS011;8791;50.876;4.342;2022-09-20T01:42:55;6.23;;;2.00;;
17347;SDS011;8791;50.876;4.342;2022-09-20T01:45:31;4.57;;;2.00;;
17347;SDS011;8791;50.876;4.342;2022-09-20T01:48:02;10.80;;;2.30;;
17347;SDS011;8791;50.876;4.342;2022-09-20T01:50:41;5.57;;;2.17;;
17347;SDS011;8791;50.876;4.342;2022-09-20T01:56:33;4.93;;;2.20;;
17347;SDS011;8791;50.876;4.342;2022-09-20T02:02:22;9.07;;;2.30;;
17347;SDS011;8791;50.876;4.342;2022-09-20T02:05:26;2.67;;;1.90;;
17347;SDS011;8791;50.876;4.342;2022-09-20T02:11:18;9.70;;;2.73;;
17347;SDS011;8791;50.876;4.342;2022-09-20T02:16:43;5.83;;;2.50;;
17347;SDS011;8791;50.876;4.342;2022-09-20T02:19:20;6.20;;;2.40;;
17347;SDS011;8791;50.876;4.342;2022-09-20T02:22:04;10.30;;;3.03;;
17347;SDS011;8791;50.876;4.342;2022-09-20T02:24:40;9.13;;;2.70;;
17347;SDS011;8791;50.876;4.342;2022-09-20T02:27:13;8.47;;;2.50;;
17347;SDS011;8791;50.876;4.342;2022-09-20T02:29:51;9.27;;;2.47;;
17347;SDS011;8791;50.876;4.342;2022-09-20T02:32:32;10.40;;;2.80;;
17347;SDS011;8791;50.876;4.342;2022-09-20T02:38:21;4.90;;;2.13;;
17347;SDS011;8791;50.876;4.342;2022-09-20T02:41:20;8.60;;;2.27;;
17347;SDS011;8791;50.876;4.342;2022-09-20T02:44:06;7.27;;;2.80;;
17347;SDS011;8791;50.876;4.342;2022-09-20T02:46:42;9.00;;;2.50;;
17347;SDS011;8791;50.876;4.342;2022-09-20T02:49:17;6.33;;;2.63;;
17347;SDS011;8791;50.876;4.342;2022-09-20T02:51:54;8.83;;;2.73;;
17347;SDS011;8791;50.876;4.342;2022-09-20T02:54:26;6.37;;;2.40;;
17347;SDS011;8791;50.876;4.342;2022-09-20T02:57:03;4.93;;;2.80;;
17347;SDS011;8791;50.876;4.342;2022-09-20T02:59:39;10.13;;;2.60;;
17347;SDS011;8791;50.876;4.342;2022-09-20T03:02:14;5.30;;;2.87;;
17347;SDS011;8791;50.876;4.342;2022-09-20T03:04:52;6.50;;;2.47;;
17347;SDS011;8791;50.876;4.342;2022-09-20T03:07:31;9.80;;;2.70;;
17347;SDS011;8791;50.876;4.342;2022-09-20T03:10:05;6.70;;;2.80;;
17347;SDS011;8791;50.876;4.342;2022-09-20T03:12:41;9.57;;;3.37;;
17347;SDS011;8791;50.876;4.342;2022-09-20T03:15:21;8.93;;;2.87;;
17347;SDS011;8791;50.876;4.342;2022-09-20T03:18:01;10.83;;;3.17;;
17347;SDS011;8791;50.876;4.342;2022-09-20T03:20:34;10.07;;;2.70;;
17347;SDS011;8791;50.876;4.342;2022-09-20T03:23:16;6.13;;;3.03;;
17347;SDS011;8791;50.876;4.342;2022-09-20T03:25:56;10.30;;;3.23;;
17347;SDS011;8791;50.876;4.342;2022-09-20T03:28:36;7.17;;;2.70;;
17347;SDS011;8791;50.876;4.342;2022-09-20T03:31:18;2.67;;;2.27;;
17347;SDS011;8791;50.876;4.342;2022-09-20T03:33:57;4.37;;;2.67;;
17347;SDS011;8791;50.876;4.342;2022-09-20T03:36:38;9.10;;;3.00;;
17347;SDS011;8791;50.876;4.342;2022-09-20T03:39:19;6.50;;;2.93;;
17347;SDS011;8791;50.876;4.342;2022-09-20T03:42:01;9.97;;;3.07;;
17347;SDS011;8791;50.876;4.342;2022-09-20T03:47:52;6.00;;;2.97;;
17347;SDS011;8791;50.876;4.342;2022-09-20T03:50:36;5.53;;;3.13;;
17347;SDS011;8791;50.876;4.342;2022-09-20T03:56:32;9.63;;;3.73;;
17347;SDS011;8791;50.876;4.342;2022-09-20T03:59:19;7.93;;;3.20;;
17347;SDS011;8791;50.876;4.342;2022-09-20T04:02:18;11.03;;;3.87;;
17347;SDS011;8791;50.876;4.342;2022-09-20T04:04:56;7.10;;;3.50;;
17347;SDS011;8791;50.876;4.342;2022-09-20T04:07:27;10.37;;;3.80;;
17347;SDS011;8791;50.876;4.342;2022-09-20T04:10:19;7.60;;;3.80;;
17347;SDS011;8791;50.876;4.342;2022-09-20T04:13:11;11.13;;;3.33;;
17347;SDS011;8791;50.876;4.342;2022-09-20T04:15:50;5.20;;;3.70;;
17347;SDS011;8791;50.876;4.342;2022-09-20T04:18:27;11.63;;;4.13;;
17347;SDS011;8791;50.876;4.342;2022-09-20T04:21:02;12.40;;;3.73;;
17347;SDS011;8791;50.876;4.342;2022-09-20T04:23:35;7.00;;;3.30;;
17347;SDS011;8791;50.876;4.342;2022-09-20T04:26:07;5.17;;;3.17;;
17347;SDS011;8791;50.876;4.342;2022-09-20T04:28:38;14.10;;;4.20;;
17347;SDS011;8791;50.876;4.342;2022-09-20T04:31:13;16.83;;;5.47;;
17347;SDS011;8791;50.876;4.342;2022-09-20T04:33:49;8.37;;;3.60;;
17347;SDS011;8791;50.876;4.342;2022-09-20T04:36:26;8.27;;;3.37;;
17347;SDS011;8791;50.876;4.342;2022-09-20T04:39:03;11.83;;;3.37;;
17347;SDS011;8791;50.876;4.342;2022-09-20T04:41:47;8.43;;;3.50;;
17347;SDS011;8791;50.876;4.342;2022-09-20T04:48:06;8.07;;;3.10;;
17347;SDS011;8791;50.876;4.342;2022-09-20T04:51:01;9.00;;;3.10;;
17347;SDS011;8791;50.876;4.342;2022-09-20T04:54:04;5.37;;;3.33;;
17347;SDS011;8791;50.876;4.342;2022-09-20T04:56:53;15.07;;;4.20;;
17347;SDS011;8791;50.876;4.342;2022-09-20T04:59:34;5.37;;;4.43;;
17347;SDS011;8791;50.876;4.342;2022-09-20T05:02:41;10.20;;;4.10;;
17347;SDS011;8791;50.876;4.342;2022-09-20T05:08:36;19.70;;;5.37;;
17347;SDS011;8791;50.876;4.342;2022-09-20T05:17:19;18.87;;;4.20;;
17347;SDS011;8791;50.876;4.342;2022-09-20T05:20:04;11.27;;;5.00;;
17347;SDS011;8791;50.876;4.342;2022-09-20T05:23:11;18.60;;;5.30;;
17347;SDS011;8791;50.876;4.342;2022-09-20T05:26:07;13.73;;;4.70;;
17347;SDS011;8791;50.876;4.342;2022-09-20T05:28:39;14.27;;;4.87;;
17347;SDS011;8791;50.876;4.342;2022-09-20T05:31:16;8.13;;;4.20;;
17347;SDS011;8791;50.876;4.342;2022-09-20T05:33:51;8.57;;;4.20;;
17347;SDS011;8791;50.876;4.342;2022-09-20T05:36:28;14.07;;;5.13;;
17347;SDS011;8791;50.876;4.342;2022-09-20T05:39:07;13.20;;;4.73;;
17347;SDS011;8791;50.876;4.342;2022-09-20T05:41:48;8.07;;;4.60;;
17347;SDS011;8791;50.876;4.342;2022-09-20T05:44:24;10.97;;;4.37;;
17347;SDS011;8791;50.876;4.342;2022-09-20T05:46:58;13.50;;;4.80;;
17347;SDS011;8791;50.876;4.342;2022-09-20T05:49:37;9.10;;;4.60;;
17347;SDS011;8791;50.876;4.342;2022-09-20T05:55:15;10.33;;;4.90;;
17347;SDS011;8791;50.876;4.342;2022-09-20T05:58:02;18.13;;;5.37;;
17347;SDS011;8791;50.876;4.342;2022-09-20T06:00:43;9.03;;;4.60;;
17347;SDS011;8791;50.876;4.342;2022-09-20T06:03:15;14.23;;;4.73;;
17347;SDS011;8791;50.876;4.342;2022-09-20T06:05:52;13.93;;;5.23;;
17347;SDS011;8791;50.876;4.342;2022-09-20T06:08:34;17.57;;;4.73;;
17347;SDS011;8791;50.876;4.342;2022-09-20T06:11:17;14.40;;;4.93;;
17347;SDS011;8791;50.876;4.342;2022-09-20T06:14:06;12.67;;;4.60;;
17347;SDS011;8791;50.876;4.342;2022-09-20T06:16:45;12.70;;;4.90;;
17347;SDS011;8791;50.876;4.342;2022-09-20T06:19:21;20.10;;;5.17;;
17347;SDS011;8791;50.876;4.342;2022-09-20T06:21:54;16.90;;;5.03;;
17347;SDS011;8791;50.876;4.342;2022-09-20T06:24:28;15.47;;;5.03;;
17347;SDS011;8791;50.876;4.342;2022-09-20T06:27:02;8.00;;;5.17;;
17347;SDS011;8791;50.876;4.342;2022-09-20T06:29:34;15.97;;;5.10;;
17347;SDS011;8791;50.876;4.342;2022-09-20T06:32:05;15.00;;;5.37;;
17347;SDS011;8791;50.876;4.342;2022-09-20T06:34:32;14.53;;;4.97;;
17347;SDS011;8791;50.876;4.342;2022-09-20T06:37:04;23.50;;;4.77;;
17347;SDS011;8791;50.876;4.342;2022-09-20T06:39:56;21.23;;;6.73;;
17347;SDS011;8791;50.876;4.342;2022-09-20T06:42:44;18.40;;;5.50;;
17347;SDS011;8791;50.876;4.342;2022-09-20T06:45:11;21.23;;;5.80;;
17347;SDS011;8791;50.876;4.342;2022-09-20T06:47:38;9.63;;;4.80;;
17347;SDS011;8791;50.876;4.342;2022-09-20T06:50:05;13.40;;;5.00;;
17347;SDS011;8791;50.876;4.342;2022-09-20T06:52:40;12.37;;;5.23;;
17347;SDS011;8791;50.876;4.342;2022-09-20T06:55:10;6.10;;;4.80;;
17347;SDS011;8791;50.876;4.342;2022-09-20T06:57:47;13.47;;;5.60;;
17347;SDS011;8791;50.876;4.342;2022-09-20T07:00:15;12.13;;;5.23;;
17347;SDS011;8791;50.876;4.342;2022-09-20T07:02:43;13.67;;;5.60;;
17347;SDS011;8791;50.876;4.342;2022-09-20T07:05:15;10.40;;;5.50;;
17347;SDS011;8791;50.876;4.342;2022-09-20T07:07:46;12.07;;;5.17;;
17347;SDS011;8791;50.876;4.342;2022-09-20T07:10:14;18.27;;;5.53;;
17347;SDS011;8791;50.876;4.342;2022-09-20T07:12:41;13.07;;;5.80;;
17347;SDS011;8791;50.876;4.342;2022-09-20T07:15:08;11.17;;;4.70;;
17347;SDS011;8791;50.876;4.342;2022-09-20T07:17:36;8.47;;;5.50;;
17347;SDS011;8791;50.876;4.342;2022-09-20T07:20:03;14.20;;;5.73;;
17347;SDS011;8791;50.876;4.342;2022-09-20T07:22:30;55.13;;;15.93;;
17347;SDS011;8791;50.876;4.342;2022-09-20T07:24:57;11.57;;;5.77;;
17347;SDS011;8791;50.876;4.342;2022-09-20T07:27:28;14.43;;;5.63;;
17347;SDS011;8791;50.876;4.342;2022-09-20T07:29:55;11.07;;;5.60;;
17347;SDS011;8791;50.876;4.342;2022-09-20T07:32:22;14.67;;;5.43;;
17347;SDS011;8791;50.876;4.342;2022-09-20T07:34:49;14.47;;;5.40;;
17347;SDS011;8791;50.876;4.342;2022-09-20T07:37:16;11.23;;;4.87;;
17347;SDS011;8791;50.876;4.342;2022-09-20T07:39:43;12.73;;;4.37;;
17347;SDS011;8791;50.876;4.342;2022-09-20T07:42:10;11.37;;;4.80;;
17347;SDS011;8791;50.876;4.342;2022-09-20T07:44:38;7.83;;;4.30;;
17347;SDS011;8791;50.876;4.342;2022-09-20T07:47:06;9.63;;;4.50;;
17347;SDS011;8791;50.876;4.342;2022-09-20T07:49:38;16.30;;;4.10;;
17347;SDS011;8791;50.876;4.342;2022-09-20T07:52:05;9.37;;;4.17;;
17347;SDS011;8791;50.876;4.342;2022-09-20T07:54:34;9.87;;;4.73;;
17347;SDS011;8791;50.876;4.342;2022-09-20T07:57:01;6.00;;;3.83;;
17347;SDS011;8791;50.876;4.342;2022-09-20T07:59:29;14.77;;;4.73;;
17347;SDS011;8791;50.876;4.342;2022-09-20T08:01:58;19.27;;;8.00;;
17347;SDS011;8791;50.876;4.342;2022-09-20T08:04:24;7.90;;;3.30;;
17347;SDS011;8791;50.876;4.342;2022-09-20T08:06:52;10.03;;;3.83;;
17347;SDS011;8791;50.876;4.342;2022-09-20T08:09:18;14.57;;;4.80;;
17347;SDS011;8791;50.876;4.342;2022-09-20T08:11:45;8.73;;;3.40;;
17347;SDS011;8791;50.876;4.342;2022-09-20T08:14:13;6.07;;;3.17;;
17347;SDS011;8791;50.876;4.342;2022-09-20T08:16:41;11.20;;;3.00;;
17347;SDS011;8791;50.876;4.342;2022-09-20T08:19:14;6.33;;;3.03;;
17347;SDS011;8791;50.876;4.342;2022-09-20T08:21:42;9.37;;;3.10;;
17347;SDS011;8791;50.876;4.342;2022-09-20T08:24:09;9.93;;;3.30;;
17347;SDS011;8791;50.876;4.342;2022-09-20T08:26:37;7.13;;;3.53;;
17347;SDS011;8791;50.876;4.342;2022-09-20T08:29:04;8.67;;;4.00;;
17347;SDS011;8791;50.876;4.342;2022-09-20T08:31:31;7.67;;;2.63;;
17347;SDS011;8791;50.876;4.342;2022-09-20T08:34:00;14.53;;;2.93;;
17347;SDS011;8791;50.876;4.342;2022-09-20T08:36:31;4.37;;;2.83;;
17347;SDS011;8791;50.876;4.342;2022-09-20T08:38:58;11.55;;;2.83;;
17347;SDS011;8791;50.876;4.342;2022-09-20T08:41:26;10.95;;;2.72;;
17347;SDS011;8791;50.876;4.342;2022-09-20T08:43:57;10.25;;;3.20;;
17347;SDS011;8791;50.876;4.342;2022-09-20T08:46:27;10.10;;;2.60;;
17347;SDS011;8791;50.876;4.342;2022-09-20T08:48:58;6.85;;;2.58;;
17347;SDS011;8791;50.876;4.342;2022-09-20T08:51:26;5.50;;;2.70;;
17347;SDS011;8791;50.876;4.342;2022-09-20T08:53:58;7.43;;;2.78;;
17347;SDS011;8791;50.876;4.342;2022-09-20T08:56:28;8.57;;;2.72;;
17347;SDS011;8791;50.876;4.342;2022-09-20T08:58:56;10.20;;;2.73;;
17347;SDS011;8791;50.876;4.342;2022-09-20T09:01:25;15.80;;;2.97;;
17347;SDS011;8791;50.876;4.342;2022-09-20T09:03:57;7.78;;;3.10;;
17347;SDS011;8791;50.876;4.342;2022-09-20T09:06:27;8.02;;;3.95;;
17347;SDS011;8791;50.876;4.342;2022-09-20T09:08:55;5.38;;;2.92;;
17347;SDS011;8791;50.876;4.342;2022-09-20T09:11:24;8.13;;;3.28;;
17347;SDS011;8791;50.876;4.342;2022-09-20T09:13:52;5.82;;;3.13;;
17347;SDS011;8791;50.876;4.342;2022-09-20T09:16:23;9.60;;;4.63;;
17347;SDS011;8791;50.876;4.342;2022-09-20T09:18:52;11.80;;;4.60;;
17347;SDS011;8791;50.876;4.342;2022-09-20T09:21:21;11.90;;;4.40;;
17347;SDS011;8791;50.876;4.342;2022-09-20T09:23:51;12.95;;;5.53;;
17347;SDS011;8791;50.876;4.342;2022-09-20T09:26:26;12.50;;;3.67;;
17347;SDS011;8791;50.876;4.342;2022-09-20T09:29:06;12.15;;;3.35;;
17347;SDS011;8791;50.876;4.342;2022-09-20T09:31:34;8.85;;;3.40;;
17347;SDS011;8791;50.876;4.342;2022-09-20T09:34:03;11.60;;;3.13;;
17347;SDS011;8791;50.876;4.342;2022-09-20T09:36:30;4.57;;;3.00;;
17347;SDS011;8791;50.876;4.342;2022-09-20T09:39:14;7.70;;;3.05;;
17347;SDS011;8791;50.876;4.342;2022-09-20T09:41:43;3.38;;;2.70;;
17347;SDS011;8791;50.876;4.342;2022-09-20T09:44:17;11.80;;;2.67;;
17347;SDS011;8791;50.876;4.342;2022-09-20T09:46:46;8.85;;;2.40;;
17347;SDS011;8791;50.876;4.342;2022-09-20T09:49:16;8.20;;;2.33;;
17347;SDS011;8791;50.876;4.342;2022-09-20T09:51:58;7.97;;;2.05;;
17347;SDS011;8791;50.876;4.342;2022-09-20T09:54:27;5.32;;;2.25;;
17347;SDS011;8791;50.876;4.342;2022-09-20T09:56:59;9.13;;;2.55;;
17347;SDS011;8791;50.876;4.342;2022-09-20T09:59:52;4.20;;;2.08;;
17347;SDS011;8791;50.876;4.342;2022-09-20T10:02:42;5.70;;;2.42;;
17347;SDS011;8791;50.876;4.342;2022-09-20T10:05:33;8.23;;;2.30;;
17347;SDS011;8791;50.876;4.342;2022-09-20T10:08:08;4.25;;;2.22;;
17347;SDS011;8791;50.876;4.342;2022-09-20T10:10:46;5.10;;;2.10;;
17347;SDS011;8791;50.876;4.342;2022-09-20T10:13:27;11.02;;;2.75;;
17347;SDS011;8791;50.876;4.342;2022-09-20T10:16:02;13.23;;;2.25;;
17347;SDS011;8791;50.876;4.342;2022-09-20T10:18:37;4.78;;;2.03;;
17347;SDS011;8791;50.876;4.342;2022-09-20T10:21:16;7.07;;;2.10;;
17347;SDS011;8791;50.876;4.342;2022-09-20T10:23:57;7.43;;;1.83;;
17347;SDS011;8791;50.876;4.342;2022-09-20T10:26:38;5.32;;;2.00;;
17347;SDS011;8791;50.876;4.342;2022-09-20T10:29:37;7.95;;;1.80;;
17347;SDS011;8791;50.876;4.342;2022-09-20T10:32:16;7.95;;;1.95;;
17347;SDS011;8791;50.876;4.342;2022-09-20T10:34:56;6.82;;;1.52;;
17347;SDS011;8791;50.876;4.342;2022-09-20T10:37:44;3.85;;;1.52;;
17347;SDS011;8791;50.876;4.342;2022-09-20T10:40:22;5.15;;;1.13;;
17347;SDS011;8791;50.876;4.342;2022-09-20T10:43:18;11.43;;;1.52;;
17347;SDS011;8791;50.876;4.342;2022-09-20T10:45:54;13.48;;;2.22;;
17347;SDS011;8791;50.876;4.342;2022-09-20T10:48:29;7.95;;;1.38;;
17347;SDS011;8791;50.876;4.342;2022-09-20T10:51:00;2.20;;;0.80;;
17347;SDS011;8791;50.876;4.342;2022-09-20T10:53:33;2.92;;;1.30;;
17347;SDS011;8791;50.876;4.342;2022-09-20T10:56:11;5.53;;;1.05;;
17347;SDS011;8791;50.876;4.342;2022-09-20T10:59:02;3.85;;;1.05;;
17347;SDS011;8791;50.876;4.342;2022-09-20T11:02:00;4.97;;;1.30;;
17347;SDS011;8791;50.876;4.342;2022-09-20T11:04:45;4.03;;;2.08;;
17347;SDS011;8791;50.876;4.342;2022-09-20T11:07:30;7.45;;;2.25;;
17347;SDS011;8791;50.876;4.342;2022-09-20T11:10:12;6.73;;;2.53;;
17347;SDS011;8791;50.876;4.342;2022-09-20T11:12:43;10.57;;;3.33;;
17347;SDS011;8791;50.876;4.342;2022-09-20T11:15:16;12.07;;;2.93;;
17347;SDS011;8791;50.876;4.342;2022-09-20T11:17:51;12.90;;;2.75;;
17347;SDS011;8791;50.876;4.342;2022-09-20T11:20:25;3.67;;;1.75;;
17347;SDS011;8791;50.876;4.342;2022-09-20T11:22:54;5.88;;;2.67;;
17347;SDS011;8791;50.876;4.342;2022-09-20T11:25:28;3.20;;;2.30;;
17347;SDS011;8791;50.876;4.342;2022-09-20T11:28:00;10.40;;;2.65;;
17347;SDS011;8791;50.876;4.342;2022-09-20T11:30:34;3.70;;;2.00;;
17347;SDS011;8791;50.876;4.342;2022-09-20T11:33:10;8.32;;;2.60;;
17347;SDS011;8791;50.876;4.342;2022-09-20T11:35:44;5.40;;;1.90;;
17347;SDS011;8791;50.876;4.342;2022-09-20T11:38:14;11.30;;;1.98;;
17347;SDS011;8791;50.876;4.342;2022-09-20T11:40:48;5.13;;;1.80;;
17347;SDS011;8791;50.876;4.342;2022-09-20T11:43:18;3.88;;;1.50;;
17347;SDS011;8791;50.876;4.342;2022-09-20T11:45:46;8.13;;;1.25;;
17347;SDS011;8791;50.876;4.342;2022-09-20T11:48:20;10.38;;;1.10;;
17347;SDS011;8791;50.876;4.342;2022-09-20T11:53:55;5.78;;;1.40;;
17347;SDS011;8791;50.876;4.342;2022-09-20T11:56:36;5.22;;;1.33;;
17347;SDS011;8791;50.876;4.342;2022-09-20T11:59:04;9.38;;;1.25;;
17347;SDS011;8791;50.876;4.342;2022-09-20T12:01:33;5.00;;;1.50;;
17347;SDS011;8791;50.876;4.342;2022-09-20T12:04:04;6.32;;;1.20;;
17347;SDS011;8791;50.876;4.342;2022-09-20T12:06:37;5.28;;;2.05;;
17347;SDS011;8791;50.876;4.342;2022-09-20T12:09:19;4.78;;;1.20;;
17347;SDS011;8791;50.876;4.342;2022-09-20T12:11:49;5.07;;;1.73;;
17347;SDS011;8791;50.876;4.342;2022-09-20T12:14:17;9.52;;;1.17;;
17347;SDS011;8791;50.876;4.342;2022-09-20T12:16:47;5.70;;;1.42;;
17347;SDS011;8791;50.876;4.342;2022-09-20T12:19:34;8.43;;;1.77;;
17347;SDS011;8791;50.876;4.342;2022-09-20T12:22:17;4.65;;;1.35;;
17347;SDS011;8791;50.876;4.342;2022-09-20T12:27:57;4.60;;;0.90;;
17347;SDS011;8791;50.876;4.342;2022-09-20T12:30:24;1.85;;;0.90;;
17347;SDS011;8791;50.876;4.342;2022-09-20T12:41:43;5.38;;;0.90;;
17347;SDS011;8791;50.876;4.342;2022-09-20T12:47:05;4.97;;;1.20;;
17347;SDS011;8791;50.876;4.342;2022-09-20T12:49:41;7.78;;;1.20;;
17347;SDS011;8791;50.876;4.342;2022-09-20T12:52:35;2.83;;;0.90;;
17347;SDS011;8791;50.876;4.342;2022-09-20T12:55:27;7.30;;;0.93;;
17347;SDS011;8791;50.876;4.342;2022-09-20T12:58:03;3.13;;;1.10;;
17347;SDS011;8791;50.876;4.342;2022-09-20T13:00:33;5.85;;;0.82;;
17347;SDS011;8791;50.876;4.342;2022-09-20T13:06:19;5.28;;;1.00;;
17347;SDS011;8791;50.876;4.342;2022-09-20T13:08:51;4.90;;;1.08;;
17347;SDS011;8791;50.876;4.342;2022-09-20T13:11:29;8.05;;;1.25;;
17347;SDS011;8791;50.876;4.342;2022-09-20T13:14:04;3.33;;;1.23;;
17347;SDS011;8791;50.876;4.342;2022-09-20T13:16:38;3.80;;;1.05;;
17347;SDS011;8791;50.876;4.342;2022-09-20T13:19:13;3.47;;;1.05;;
17347;SDS011;8791;50.876;4.342;2022-09-20T13:21:46;3.90;;;1.10;;
17347;SDS011;8791;50.876;4.342;2022-09-20T13:24:19;6.30;;;1.60;;
17347;SDS011;8791;50.876;4.342;2022-09-20T13:26:51;9.15;;;1.17;;
17347;SDS011;8791;50.876;4.342;2022-09-20T13:29:21;4.70;;;0.90;;
17347;SDS011;8791;50.876;4.342;2022-09-20T13:31:52;4.78;;;1.20;;
17347;SDS011;8791;50.876;4.342;2022-09-20T13:34:20;2.92;;;1.00;;
17347;SDS011;8791;50.876;4.342;2022-09-20T13:36:50;4.35;;;1.02;;
17347;SDS011;8791;50.876;4.342;2022-09-20T13:39:22;5.25;;;1.42;;
17347;SDS011;8791;50.876;4.342;2022-09-20T13:41:59;1.38;;;0.70;;
17347;SDS011;8791;50.876;4.342;2022-09-20T13:44:28;2.70;;;0.90;;
17347;SDS011;8791;50.876;4.342;2022-09-20T13:46:58;3.83;;;1.00;;
17347;SDS011;8791;50.876;4.342;2022-09-20T13:49:29;3.03;;;1.10;;
17347;SDS011;8791;50.876;4.342;2022-09-20T13:51:56;4.55;;;1.23;;
17347;SDS011;8791;50.876;4.342;2022-09-20T13:54:25;3.22;;;1.00;;
17347;SDS011;8791;50.876;4.342;2022-09-20T13:56:53;4.78;;;1.20;;
17347;SDS011;8791;50.876;4.342;2022-09-20T13:59:24;3.13;;;0.90;;
17347;SDS011;8791;50.876;4.342;2022-09-20T14:01:55;2.45;;;1.02;;
17347;SDS011;8791;50.876;4.342;2022-09-20T14:04:24;1.90;;;1.00;;
17347;SDS011;8791;50.876;4.342;2022-09-20T14:06:53;5.13;;;1.10;;
17347;SDS011;8791;50.876;4.342;2022-09-20T14:09:27;7.55;;;1.20;;
17347;SDS011;8791;50.876;4.342;2022-09-20T14:11:56;5.15;;;1.00;;
17347;SDS011;8791;50.876;4.342;2022-09-20T14:14:25;8.65;;;1.33;;
17347;SDS011;8791;50.876;4.342;2022-09-20T14:16:53;6.25;;;1.10;;
17347;SDS011;8791;50.876;4.342;2022-09-20T14:19:24;7.03;;;0.80;;
17347;SDS011;8791;50.876;4.342;2022-09-20T14:21:56;2.80;;;1.00;;
17347;SDS011;8791;50.876;4.342;2022-09-20T14:24:28;8.73;;;1.70;;
17347;SDS011;8791;50.876;4.342;2022-09-20T14:27:01;6.53;;;1.77;;
17347;SDS011;8791;50.876;4.342;2022-09-20T14:29:42;4.97;;;1.50;;
17347;SDS011;8791;50.876;4.342;2022-09-20T14:32:13;5.15;;;1.30;;
17347;SDS011;8791;50.876;4.342;2022-09-20T14:35:02;2.25;;;1.10;;
17347;SDS011;8791;50.876;4.342;2022-09-20T14:37:31;3.10;;;1.05;;
17347;SDS011;8791;50.876;4.342;2022-09-20T14:40:03;10.00;;;1.40;;
17347;SDS011;8791;50.876;4.342;2022-09-20T14:42:41;7.55;;;1.48;;
17347;SDS011;8791;50.876;4.342;2022-09-20T14:45:19;3.05;;;1.10;;
17347;SDS011;8791;50.876;4.342;2022-09-20T14:47:52;6.90;;;1.17;;
17347;SDS011;8791;50.876;4.342;2022-09-20T14:50:25;2.50;;;1.02;;
17347;SDS011;8791;50.876;4.342;2022-09-20T14:53:04;11.90;;;1.20;;
17347;SDS011;8791;50.876;4.342;2022-09-20T14:56:06;5.72;;;1.33;;
17347;SDS011;8791;50.876;4.342;2022-09-20T15:01:32;6.18;;;1.10;;
17347;SDS011;8791;50.876;4.342;2022-09-20T15:04:04;6.93;;;1.10;;
17347;SDS011;8791;50.876;4.342;2022-09-20T15:06:34;5.95;;;1.23;;
17347;SDS011;8791;50.876;4.342;2022-09-20T15:09:01;4.80;;;1.73;;
17347;SDS011;8791;50.876;4.342;2022-09-20T15:11:28;6.68;;;1.20;;
17347;SDS011;8791;50.876;4.342;2022-09-20T15:13:55;4.93;;;1.13;;
17347;SDS011;8791;50.876;4.342;2022-09-20T15:16:22;4.55;;;1.20;;
17347;SDS011;8791;50.876;4.342;2022-09-20T15:18:50;3.90;;;0.68;;
17347;SDS011;8791;50.876;4.342;2022-09-20T15:21:17;4.88;;;1.00;;
17347;SDS011;8791;50.876;4.342;2022-09-20T15:23:44;2.70;;;1.30;;
17347;SDS011;8791;50.876;4.342;2022-09-20T15:26:11;6.35;;;1.05;;
17347;SDS011;8791;50.876;4.342;2022-09-20T15:28:39;9.32;;;1.10;;
17347;SDS011;8791;50.876;4.342;2022-09-20T15:31:06;5.32;;;1.13;;
17347;SDS011;8791;50.876;4.342;2022-09-20T15:33:34;3.55;;;1.00;;
17347;SDS011;8791;50.876;4.342;2022-09-20T15:36:03;3.70;;;1.08;;
17347;SDS011;8791;50.876;4.342;2022-09-20T15:38:30;4.60;;;1.00;;
17347;SDS011;8791;50.876;4.342;2022-09-20T15:40:58;4.70;;;1.27;;
17347;SDS011;8791;50.876;4.342;2022-09-20T15:43:27;9.15;;;1.27;;
17347;SDS011;8791;50.876;4.342;2022-09-20T15:45:55;3.70;;;1.17;;
17347;SDS011;8791;50.876;4.342;2022-09-20T15:48:25;4.28;;;0.88;;
17347;SDS011;8791;50.876;4.342;2022-09-20T15:51:05;4.53;;;1.63;;
17347;SDS011;8791;50.876;4.342;2022-09-20T15:53:36;5.72;;;1.30;;
17347;SDS011;8791;50.876;4.342;2022-09-20T15:56:13;1.83;;;1.10;;
17347;SDS011;8791;50.876;4.342;2022-09-20T15:58:42;1.75;;;1.00;;
17347;SDS011;8791;50.876;4.342;2022-09-20T16:01:11;2.63;;;1.08;;
17347;SDS011;8791;50.876;4.342;2022-09-20T16:03:40;5.57;;;1.40;;
17347;SDS011;8791;50.876;4.342;2022-09-20T16:06:10;4.45;;;1.40;;
17347;SDS011;8791;50.876;4.342;2022-09-20T16:08:38;6.45;;;1.30;;
17347;SDS011;8791;50.876;4.342;2022-09-20T16:11:06;9.90;;;1.50;;
17347;SDS011;8791;50.876;4.342;2022-09-20T16:13:34;4.93;;;1.30;;
17347;SDS011;8791;50.876;4.342;2022-09-20T16:16:01;6.88;;;1.20;;
17347;SDS011;8791;50.876;4.342;2022-09-20T16:18:29;3.58;;;1.38;;
17347;SDS011;8791;50.876;4.342;2022-09-20T16:21:16;3.88;;;0.88;;
17347;SDS011;8791;50.876;4.342;2022-09-20T16:23:46;4.97;;;1.75;;
17347;SDS011;8791;50.876;4.342;2022-09-20T16:26:13;3.35;;;1.58;;
17347;SDS011;8791;50.876;4.342;2022-09-20T16:28:41;1.88;;;1.20;;
17347;SDS011;8791;50.876;4.342;2022-09-20T16:31:23;3.03;;;1.10;;
17347;SDS011;8791;50.876;4.342;2022-09-20T16:33:54;8.48;;;2.20;;
17347;SDS011;8791;50.876;4.342;2022-09-20T16:36:23;4.57;;;1.38;;
17347;SDS011;8791;50.876;4.342;2022-09-20T16:38:49;15.75;;;2.15;;
17347;SDS011;8791;50.876;4.342;2022-09-20T16:41:17;2.88;;;1.30;;
17347;SDS011;8791;50.876;4.342;2022-09-20T16:43:44;7.60;;;1.60;;
17347;SDS011;8791;50.876;4.342;2022-09-20T16:46:16;5.25;;;1.70;;